createdAt,value
2018-12-15T00:00:06.811Z,63.20
2018-12-15T00:02:33.683Z,63.00
2018-12-15T00:05:01.297Z,63.20
2018-12-15T00:07:31.628Z,63.30
2018-12-15T00:10:03.515Z,63.10
2018-12-15T00:12:36.335Z,62.60
2018-12-15T00:15:21.975Z,62.60
2018-12-15T00:17:49.557Z,62.90
2018-12-15T00:20:18.479Z,63.00
2018-12-15T00:22:48.176Z,62.60
2018-12-15T00:25:15.400Z,62.70
2018-12-15T00:27:42.719Z,62.60
2018-12-15T00:30:12.337Z,62.70
2018-12-15T00:32:40.664Z,62.80
2018-12-15T00:35:07.733Z,62.50
2018-12-15T00:37:34.731Z,62.20
2018-12-15T00:40:02.296Z,62.30
2018-12-15T00:42:32.449Z,62.40
2018-12-15T00:44:59.450Z,62.30
2018-12-15T00:47:27.229Z,62.30
2018-12-15T00:49:54.711Z,63.10
2018-12-15T00:52:22.154Z,62.80
2018-12-15T00:54:49.491Z,62.60
2018-12-15T00:57:18.379Z,62.70
2018-12-15T00:59:46.101Z,62.70
2018-12-15T01:02:12.557Z,62.80
2018-12-15T01:04:38.812Z,62.80
2018-12-15T01:07:05.118Z,62.90
2018-12-15T01:09:31.399Z,62.90
2018-12-15T01:11:58.955Z,62.90
2018-12-15T01:14:26.063Z,62.90
2018-12-15T01:16:52.496Z,62.70
2018-12-15T01:19:20.616Z,62.70
2018-12-15T01:21:47.957Z,62.70
2018-12-15T01:24:16.182Z,62.50
2018-12-15T01:26:44.696Z,62.10
2018-12-15T01:29:12.864Z,61.90
2018-12-15T01:31:40.336Z,61.80
2018-12-15T01:34:07.542Z,61.80
2018-12-15T01:36:34.833Z,61.90
2018-12-15T01:39:05.694Z,62.00
2018-12-15T01:41:34.355Z,62.10
2018-12-15T01:44:01.902Z,62.30
2018-12-15T01:46:29.881Z,62.20
2018-12-15T01:48:58.064Z,62.40
2018-12-15T01:51:25.076Z,62.30
2018-12-15T01:53:52.500Z,62.30
2018-12-15T01:56:19.637Z,62.40
2018-12-15T01:58:48.431Z,62.30
2018-12-15T02:01:16.191Z,62.30
2018-12-15T02:03:43.985Z,62.10
2018-12-15T02:06:11.890Z,62.40
2018-12-15T02:08:39.868Z,62.20
2018-12-15T02:11:07.390Z,62.20
2018-12-15T02:13:34.532Z,62.30
2018-12-15T02:16:02.782Z,62.30
2018-12-15T02:18:32.700Z,62.60
2018-12-15T02:20:59.302Z,62.50
2018-12-15T02:23:27.202Z,62.30
2018-12-15T02:25:55.514Z,62.40
2018-12-15T02:28:23.312Z,62.80
2018-12-15T02:30:53.217Z,62.70
2018-12-15T02:33:21.806Z,62.70
2018-12-15T02:35:49.152Z,62.50
2018-12-15T02:38:18.256Z,62.60
2018-12-15T02:40:46.435Z,62.70
2018-12-15T02:43:13.292Z,62.60
2018-12-15T02:45:41.555Z,62.90
2018-12-15T02:48:12.091Z,63.10
2018-12-15T02:50:41.628Z,63.10
2018-12-15T02:53:09.962Z,62.50
2018-12-15T02:55:38.138Z,61.90
2018-12-15T02:58:07.051Z,61.80
2018-12-15T03:00:35.601Z,62.10
2018-12-15T03:03:02.922Z,61.70
2018-12-15T03:05:29.998Z,61.80
2018-12-15T03:07:57.081Z,62.10
2018-12-15T03:10:24.182Z,62.10
2018-12-15T03:12:51.832Z,62.60
2018-12-15T03:15:20.043Z,62.10
2018-12-15T03:17:48.975Z,62.10
2018-12-15T03:20:17.021Z,62.50
2018-12-15T03:22:44.257Z,62.80
2018-12-15T03:25:11.703Z,62.90
2018-12-15T03:27:38.854Z,62.10
2018-12-15T03:30:07.343Z,62.20
2018-12-15T03:32:33.738Z,62.60
2018-12-15T03:35:01.947Z,62.20
2018-12-15T03:37:28.320Z,61.90
2018-12-15T03:39:57.595Z,62.10
2018-12-15T03:42:25.529Z,62.00
2018-12-15T03:44:55.430Z,61.80
2018-12-15T03:47:23.351Z,61.70
2018-12-15T03:49:53.751Z,61.30
2018-12-15T03:52:21.958Z,61.40
2018-12-15T03:54:52.676Z,61.70
2018-12-15T03:57:20.768Z,61.80
2018-12-15T03:59:48.200Z,61.50
2018-12-15T04:02:16.147Z,61.60
2018-12-15T04:04:44.934Z,61.60
2018-12-15T04:07:12.837Z,61.40
2018-12-15T04:09:40.315Z,61.50
2018-12-15T04:12:08.463Z,61.60
2018-12-15T04:14:35.881Z,61.70
2018-12-15T04:17:02.954Z,61.60
2018-12-15T04:19:29.837Z,61.50
2018-12-15T04:22:05.087Z,61.40
2018-12-15T04:24:32.593Z,61.50
2018-12-15T04:27:02.788Z,61.30
2018-12-15T04:29:29.903Z,61.50
2018-12-15T04:31:57.086Z,61.40
2018-12-15T04:34:25.589Z,61.60
2018-12-15T04:36:52.550Z,61.70
2018-12-15T04:39:20.575Z,61.80
2018-12-15T04:41:49.998Z,62.20
2018-12-15T04:44:17.395Z,62.40
2018-12-15T04:46:45.164Z,62.40
2018-12-15T04:49:13.173Z,62.50
2018-12-15T04:51:40.676Z,62.60
2018-12-15T04:54:07.068Z,62.60
2018-12-15T04:56:33.389Z,62.10
2018-12-15T04:58:59.673Z,62.70
2018-12-15T05:01:25.942Z,62.20
2018-12-15T05:03:52.276Z,62.20
2018-12-15T05:06:18.549Z,62.10
2018-12-15T05:08:44.830Z,62.30
2018-12-15T05:11:11.125Z,62.30
2018-12-15T05:13:37.403Z,62.10
2018-12-15T05:16:03.657Z,62.10
2018-12-15T05:18:29.918Z,62.30
2018-12-15T05:20:56.193Z,62.50
2018-12-15T05:23:22.477Z,62.20
2018-12-15T05:25:48.758Z,62.20
2018-12-15T05:28:15.086Z,62.30
2018-12-15T05:30:41.366Z,62.00
2018-12-15T05:33:08.693Z,61.90
2018-12-15T05:35:35.629Z,62.00
2018-12-15T05:38:02.020Z,62.30
2018-12-15T05:40:29.580Z,62.60
2018-12-15T05:42:58.512Z,62.50
2018-12-15T05:45:24.985Z,62.80
2018-12-15T05:47:51.254Z,62.80
2018-12-15T05:50:18.755Z,62.90
2018-12-15T05:52:45.980Z,62.70
2018-12-15T05:55:14.708Z,62.80
2018-12-15T05:57:43.189Z,62.90
2018-12-15T06:00:11.974Z,62.90
2018-12-15T06:02:39.344Z,63.00
2018-12-15T06:05:06.711Z,63.30
2018-12-15T06:07:33.548Z,63.30
2018-12-15T06:10:04.660Z,63.50
2018-12-15T06:12:32.823Z,63.40
2018-12-15T06:15:02.837Z,63.10
2018-12-15T06:17:29.952Z,63.50
2018-12-15T06:19:57.968Z,63.50
2018-12-15T06:22:27.264Z,63.20
2018-12-15T06:24:56.667Z,63.40
2018-12-15T06:27:24.726Z,63.20
2018-12-15T06:29:53.611Z,63.30
2018-12-15T06:32:21.807Z,63.40
2018-12-15T06:34:50.299Z,63.50
2018-12-15T06:37:16.787Z,63.50
2018-12-15T06:39:43.066Z,63.90
2018-12-15T06:42:11.365Z,63.20
2018-12-15T06:44:38.563Z,63.60
2018-12-15T06:47:05.174Z,63.30
2018-12-15T06:49:31.872Z,63.20
2018-12-15T06:51:58.156Z,63.10
2018-12-15T06:54:24.442Z,63.10
2018-12-15T06:56:50.757Z,63.00
2018-12-15T06:59:17.095Z,62.90
2018-12-15T07:01:44.223Z,62.90
2018-12-15T07:04:10.869Z,63.20
2018-12-15T07:06:37.400Z,63.30
2018-12-15T07:09:05.135Z,63.20
2018-12-15T07:11:31.612Z,63.40
2018-12-15T07:13:58.187Z,63.40
2018-12-15T07:16:24.543Z,63.20
2018-12-15T07:18:50.995Z,63.30
2018-12-15T07:21:17.448Z,63.30
2018-12-15T07:23:43.982Z,63.20
2018-12-15T07:26:10.687Z,63.00
2018-12-15T07:28:43.603Z,63.20
2018-12-15T07:31:16.218Z,63.40
2018-12-15T07:33:48.708Z,63.40
2018-12-15T07:36:21.476Z,63.20
2018-12-15T07:38:56.405Z,63.10
2018-12-15T07:41:29.004Z,63.20
2018-12-15T07:49:53.082Z,63.30
2018-12-15T07:55:17.141Z,63.40
2018-12-15T07:57:49.409Z,62.80
2018-12-15T08:12:19.027Z,63.20
2018-12-15T08:14:52.259Z,63.30
2018-12-15T08:26:08.472Z,62.80
2018-12-15T08:28:56.072Z,62.70
2018-12-15T08:31:26.130Z,62.20
2018-12-15T08:36:48.704Z,62.20
2018-12-15T08:42:14.726Z,62.60
2018-12-15T08:44:44.949Z,62.20
2018-12-15T08:47:17.306Z,61.90
2018-12-15T08:52:45.193Z,61.70
2018-12-15T08:55:15.314Z,61.40
2018-12-15T09:03:37.922Z,61.00
2018-12-15T09:06:04.304Z,60.70
2018-12-15T09:08:37.251Z,61.00
2018-12-15T09:17:14.961Z,60.90
2018-12-15T09:25:32.952Z,61.10
2018-12-15T09:28:09.251Z,60.50
2018-12-15T09:30:35.547Z,61.00
2018-12-15T09:33:04.954Z,60.80
2018-12-15T09:35:37.261Z,60.60
2018-12-15T09:47:21.759Z,61.10
2018-12-15T09:49:48.182Z,61.60
2018-12-15T09:52:14.600Z,60.50
2018-12-15T09:54:48.681Z,60.30
2018-12-15T09:57:18.508Z,60.60
2018-12-15T09:59:44.959Z,60.80
2018-12-15T10:08:06.676Z,61.10
2018-12-15T10:10:34.421Z,60.70
2018-12-15T10:13:00.995Z,60.90
2018-12-15T10:15:27.313Z,60.80
2018-12-15T10:17:53.599Z,60.80
2018-12-15T10:20:26.343Z,60.90
2018-12-15T10:22:52.670Z,60.70
2018-12-15T10:25:19.067Z,61.00
2018-12-15T10:27:45.369Z,60.90
2018-12-15T10:30:17.830Z,60.50
2018-12-15T10:32:53.988Z,60.90
2018-12-15T10:35:20.824Z,60.90
2018-12-15T10:37:47.444Z,61.10
2018-12-15T10:40:13.834Z,60.90
2018-12-15T10:42:40.211Z,60.70
2018-12-15T10:48:01.884Z,60.80
2018-12-15T10:50:28.128Z,60.70
2018-12-15T10:52:54.344Z,60.20
2018-12-15T10:55:20.673Z,60.50
2018-12-15T10:57:46.954Z,59.70
2018-12-15T11:00:19.497Z,59.60
2018-12-15T11:02:47.206Z,59.80
2018-12-15T11:05:13.525Z,59.10
2018-12-15T11:07:40.865Z,59.50
2018-12-15T11:10:07.200Z,59.40
2018-12-15T11:12:33.536Z,59.80
2018-12-15T11:14:59.834Z,59.80
2018-12-15T11:17:26.127Z,59.30
2018-12-15T11:31:40.195Z,59.10
2018-12-15T11:34:06.490Z,59.40
2018-12-15T11:36:32.796Z,59.50
2018-12-15T11:39:00.183Z,59.10
2018-12-15T11:41:26.491Z,59.10
2018-12-15T11:43:52.816Z,58.90
2018-12-15T11:49:18.465Z,59.60
2018-12-15T11:51:46.851Z,59.90
2018-12-15T11:54:13.746Z,59.20
2018-12-15T11:56:42.095Z,59.40
2018-12-15T11:59:08.441Z,59.40
2018-12-15T12:01:34.741Z,59.70
2018-12-15T12:04:01.020Z,60.00
2018-12-15T12:06:27.838Z,59.90
2018-12-15T12:08:54.252Z,59.70
2018-12-15T12:11:20.520Z,59.60
2018-12-15T12:13:46.802Z,59.70
2018-12-15T12:16:13.060Z,59.40
2018-12-15T12:18:39.331Z,59.00
2018-12-15T12:21:05.670Z,59.30
2018-12-15T12:23:31.931Z,59.30
2018-12-15T12:25:59.065Z,59.40
2018-12-15T12:28:25.510Z,59.70
2018-12-15T12:30:51.957Z,59.60
2018-12-15T12:33:18.265Z,59.60
2018-12-15T12:35:44.571Z,59.40
2018-12-15T12:38:10.859Z,58.70
2018-12-15T12:40:37.287Z,59.30
2018-12-15T12:43:03.709Z,58.50
2018-12-15T12:45:30.062Z,58.90
2018-12-15T12:47:58.046Z,58.80
2018-12-15T12:50:25.476Z,59.30
2018-12-15T12:52:55.354Z,58.40
2018-12-15T12:55:21.794Z,58.60
2018-12-15T12:57:48.184Z,58.40
2018-12-15T13:00:14.560Z,58.60
2018-12-15T13:02:40.848Z,58.30
2018-12-15T13:05:07.422Z,58.70
2018-12-15T13:07:33.714Z,58.40
2018-12-15T13:10:00.026Z,58.20
2018-12-15T13:12:26.468Z,58.50
2018-12-15T13:14:53.245Z,58.60
2018-12-15T13:17:19.562Z,58.10
2018-12-15T13:19:46.011Z,58.10
2018-12-15T13:22:14.571Z,58.40
2018-12-15T13:24:41.164Z,58.70
2018-12-15T13:27:07.839Z,58.90
2018-12-15T13:29:34.320Z,58.60
2018-12-15T13:32:01.105Z,58.20
2018-12-15T13:34:27.761Z,58.10
2018-12-15T13:36:54.121Z,58.50
2018-12-15T13:39:20.478Z,57.90
2018-12-15T13:41:47.835Z,58.30
2018-12-15T13:44:14.203Z,58.70
2018-12-15T13:46:40.515Z,58.80
2018-12-15T13:49:06.816Z,59.10
2018-12-15T13:51:33.071Z,59.20
2018-12-15T13:53:59.412Z,59.10
2018-12-15T13:56:25.676Z,59.10
2018-12-15T13:58:51.971Z,59.10
2018-12-15T14:01:19.455Z,59.40
2018-12-15T14:03:45.836Z,59.40
2018-12-15T14:06:12.153Z,59.60
2018-12-15T14:08:38.402Z,59.00
2018-12-15T14:11:04.711Z,58.70
2018-12-15T14:13:30.940Z,58.70
2018-12-15T14:15:57.180Z,58.90
2018-12-15T14:18:23.485Z,59.00
2018-12-15T14:20:49.758Z,59.10
2018-12-15T14:23:16.137Z,59.30
2018-12-15T14:25:42.409Z,59.40
2018-12-15T14:28:08.682Z,59.40
2018-12-15T14:30:34.937Z,59.40
2018-12-15T14:33:01.204Z,59.70
2018-12-15T14:35:27.448Z,59.80
2018-12-15T14:37:53.717Z,59.90
2018-12-15T14:40:20.004Z,59.90
2018-12-15T14:42:46.274Z,59.70
2018-12-15T14:45:12.635Z,59.60
2018-12-15T14:47:38.892Z,60.00
2018-12-15T14:50:05.460Z,60.10
2018-12-15T14:52:31.713Z,59.80
2018-12-15T14:54:58.049Z,59.70
2018-12-15T14:57:24.296Z,59.80
2018-12-15T14:59:50.613Z,59.40
2018-12-15T15:02:16.929Z,59.50
2018-12-15T15:04:43.223Z,59.80
2018-12-15T15:07:09.799Z,60.10
2018-12-15T15:09:36.086Z,60.10
2018-12-15T15:12:02.358Z,59.90
2018-12-15T15:14:28.652Z,60.10
2018-12-15T15:16:54.988Z,59.90
2018-12-15T15:19:21.282Z,60.00
2018-12-15T15:21:48.720Z,60.10
2018-12-15T15:24:15.016Z,59.80
2018-12-15T15:26:41.406Z,60.40
2018-12-15T15:29:07.795Z,59.80
2018-12-15T15:31:34.392Z,60.00
2018-12-15T15:34:00.669Z,59.90
2018-12-15T15:36:27.984Z,60.00
2018-12-15T15:38:54.266Z,60.00
2018-12-15T15:41:20.625Z,60.00
2018-12-15T15:43:46.974Z,60.30
2018-12-15T15:46:14.609Z,60.60
2018-12-15T15:48:41.085Z,60.10
2018-12-15T15:51:07.344Z,60.20
2018-12-15T15:53:33.662Z,60.50
2018-12-15T15:56:01.091Z,60.70
2018-12-15T15:58:27.448Z,60.60
2018-12-15T16:00:53.841Z,60.50
2018-12-15T16:03:20.139Z,60.60
2018-12-15T16:05:46.463Z,61.00
2018-12-15T16:08:12.748Z,60.60
2018-12-15T16:10:40.413Z,60.90
2018-12-15T16:13:06.936Z,61.10
2018-12-15T16:15:33.230Z,61.50
2018-12-15T16:17:59.842Z,61.30
2018-12-15T16:20:26.190Z,61.20
2018-12-15T16:22:52.713Z,61.10
2018-12-15T16:25:19.157Z,60.80
2018-12-15T16:27:45.535Z,60.70
2018-12-15T16:30:12.931Z,61.10
2018-12-15T16:32:39.497Z,61.20
2018-12-15T16:35:06.089Z,61.10
2018-12-15T16:37:33.528Z,61.40
2018-12-15T16:39:59.876Z,60.90
2018-12-15T16:42:26.171Z,61.00
2018-12-15T16:44:52.502Z,61.10
2018-12-15T16:47:18.860Z,61.00
2018-12-15T16:49:45.156Z,61.10
2018-12-15T16:52:11.446Z,61.10
2018-12-15T16:54:37.768Z,61.10
2018-12-15T16:57:05.221Z,61.90
2018-12-15T16:59:31.499Z,61.30
2018-12-15T17:01:57.791Z,61.50
2018-12-15T17:04:25.117Z,61.40
2018-12-15T17:06:51.413Z,61.70
2018-12-15T17:09:17.726Z,61.30
2018-12-15T17:11:44.042Z,61.30
2018-12-15T17:14:10.349Z,61.30
2018-12-15T17:16:36.672Z,61.30
2018-12-15T17:19:03.214Z,61.50
2018-12-15T17:21:29.646Z,61.30
2018-12-15T17:23:55.950Z,61.60
2018-12-15T17:26:22.254Z,61.70
2018-12-15T17:28:48.607Z,61.60
2018-12-15T17:31:16.972Z,61.20
2018-12-15T17:33:43.268Z,61.30
2018-12-15T17:36:09.560Z,61.60
2018-12-15T17:38:35.862Z,62.20
2018-12-15T17:41:02.195Z,61.80
2018-12-15T17:43:28.509Z,61.50
2018-12-15T17:45:54.821Z,61.70
2018-12-15T17:48:21.177Z,61.10
2018-12-15T17:50:48.507Z,61.10
2018-12-15T17:53:15.009Z,60.60
2018-12-15T17:55:41.410Z,60.40
2018-12-15T17:58:07.706Z,60.50
2018-12-15T18:00:35.090Z,60.20
2018-12-15T18:03:01.377Z,60.30
2018-12-15T18:05:28.701Z,60.40
2018-12-15T18:07:54.962Z,60.80
2018-12-15T18:10:21.311Z,60.40
2018-12-15T18:12:47.631Z,60.80
2018-12-15T18:15:15.099Z,60.60
2018-12-15T18:17:41.685Z,60.90
2018-12-15T18:20:08.073Z,60.80
2018-12-15T18:22:34.313Z,61.10
2018-12-15T18:25:00.660Z,61.20
2018-12-15T18:27:26.984Z,61.30
2018-12-15T18:29:53.302Z,61.50
2018-12-15T18:32:19.598Z,61.40
2018-12-15T18:34:45.946Z,61.50
2018-12-15T18:37:13.319Z,61.50
2018-12-15T18:39:39.636Z,61.60
2018-12-15T18:42:10.901Z,61.70
2018-12-15T18:44:34.271Z,61.60
2018-12-15T18:47:00.720Z,61.50
2018-12-15T18:49:27.203Z,61.60
2018-12-15T18:51:53.551Z,61.70
2018-12-15T18:54:20.040Z,61.90
2018-12-15T18:56:46.615Z,61.90
2018-12-15T18:59:13.053Z,61.90
2018-12-15T19:01:39.410Z,62.00
2018-12-15T19:04:06.664Z,62.00
2018-12-15T19:06:33.036Z,62.10
2018-12-15T19:09:04.008Z,62.10
2018-12-15T19:11:27.730Z,62.20
2018-12-15T19:13:54.009Z,62.30
2018-12-15T19:16:20.312Z,62.20
2018-12-15T19:18:46.637Z,62.20
2018-12-15T19:21:12.932Z,62.30
2018-12-15T19:23:39.208Z,62.30
2018-12-15T19:26:05.870Z,62.30
2018-12-15T19:28:32.369Z,62.20
2018-12-15T19:30:58.740Z,62.20
2018-12-15T19:33:25.165Z,62.20
2018-12-15T19:35:51.549Z,62.30
2018-12-15T19:38:17.976Z,62.40
2018-12-15T19:40:44.401Z,62.70
2018-12-15T19:43:10.715Z,62.80
2018-12-15T19:45:36.976Z,62.90
2018-12-15T19:48:03.524Z,63.10
2018-12-15T19:50:29.782Z,62.90
2018-12-15T19:52:56.199Z,62.80
2018-12-15T19:55:23.604Z,62.70
2018-12-15T19:57:49.950Z,62.60
2018-12-15T20:00:16.340Z,62.60
2018-12-15T20:02:42.650Z,62.70
2018-12-15T20:05:08.949Z,62.50
2018-12-15T20:07:35.252Z,62.70
2018-12-15T20:10:01.759Z,62.80
2018-12-15T20:12:28.129Z,62.70
2018-12-15T20:14:54.493Z,62.60
2018-12-15T20:17:20.772Z,62.60
2018-12-15T20:19:47.033Z,62.50
2018-12-15T20:22:13.369Z,62.60
2018-12-15T20:24:39.580Z,62.60
2018-12-15T20:27:05.946Z,62.40
2018-12-15T20:29:34.392Z,62.90
2018-12-15T20:32:00.691Z,62.30
2018-12-15T20:34:27.060Z,61.90
2018-12-15T20:36:53.390Z,62.00
2018-12-15T20:39:19.705Z,62.20
2018-12-15T20:41:46.040Z,62.70
2018-12-15T20:44:12.318Z,62.90
2018-12-15T20:46:42.287Z,63.60
2018-12-15T20:49:08.788Z,63.40
2018-12-15T20:51:35.149Z,63.50
2018-12-15T20:54:25.048Z,63.60
2018-12-15T20:56:51.969Z,63.30
2018-12-15T20:59:19.351Z,63.30
2018-12-15T21:01:45.767Z,63.40
2018-12-15T21:04:24.601Z,63.40
2018-12-15T21:06:51.039Z,63.30
2018-12-15T21:09:17.329Z,63.40
2018-12-15T21:11:43.591Z,63.40
2018-12-15T21:14:10.099Z,63.20
2018-12-15T21:16:36.415Z,63.40
2018-12-15T21:19:02.757Z,63.30
2018-12-15T21:21:29.013Z,63.40
2018-12-15T21:23:55.288Z,63.70
2018-12-15T21:26:21.579Z,64.20
2018-12-15T21:28:47.888Z,64.40
2018-12-15T21:31:14.244Z,64.30
2018-12-15T21:33:40.515Z,64.10
2018-12-15T21:36:06.838Z,64.30
2018-12-15T21:38:33.099Z,64.10
2018-12-15T21:40:59.401Z,64.00
2018-12-15T21:43:25.698Z,64.30
2018-12-15T21:45:51.980Z,64.40
2018-12-15T21:48:18.228Z,64.20
2018-12-15T21:50:44.529Z,64.10
2018-12-15T21:53:10.849Z,64.00
2018-12-15T21:55:37.136Z,63.80
2018-12-15T21:58:03.467Z,63.90
2018-12-15T22:00:29.718Z,63.90
2018-12-15T22:02:56.000Z,64.10
2018-12-15T22:05:22.383Z,64.50
2018-12-15T22:07:48.692Z,64.80
2018-12-15T22:10:14.996Z,64.70
2018-12-15T22:12:41.487Z,64.60
2018-12-15T22:15:08.098Z,64.50
2018-12-15T22:17:34.381Z,64.90
2018-12-15T22:20:00.676Z,65.10
2018-12-15T22:22:26.943Z,65.20
2018-12-15T22:24:53.258Z,65.30
2018-12-15T22:27:19.592Z,65.60
2018-12-15T22:29:45.953Z,65.90
2018-12-15T22:32:12.701Z,66.00
2018-12-15T22:34:38.980Z,65.90
2018-12-15T22:37:05.285Z,66.00
2018-12-15T22:39:31.643Z,66.10
2018-12-15T22:41:57.980Z,66.30
2018-12-15T22:44:24.245Z,66.50
2018-12-15T22:46:50.513Z,66.70
2018-12-15T22:49:16.814Z,66.60
2018-12-15T22:51:43.132Z,66.40
2018-12-15T22:54:09.444Z,66.50
2018-12-15T22:56:35.880Z,66.60
2018-12-15T22:59:02.171Z,66.70
2018-12-15T23:01:30.466Z,66.80
2018-12-15T23:03:56.835Z,67.00
2018-12-15T23:06:23.194Z,66.90
2018-12-15T23:08:49.624Z,67.20
2018-12-15T23:11:15.988Z,67.30
2018-12-15T23:13:42.294Z,67.40
2018-12-15T23:16:08.593Z,67.60
2018-12-15T23:18:34.858Z,67.80
2018-12-15T23:21:01.156Z,67.80
2018-12-15T23:23:27.454Z,67.80
2018-12-15T23:25:53.777Z,67.70
2018-12-15T23:28:20.061Z,67.90
2018-12-15T23:30:46.407Z,68.10
2018-12-15T23:33:12.698Z,68.20
2018-12-15T23:35:39.034Z,68.40
2018-12-15T23:38:05.367Z,68.40
2018-12-15T23:40:31.638Z,68.50
2018-12-15T23:42:57.926Z,68.60
2018-12-15T23:45:24.292Z,68.40
2018-12-15T23:47:50.581Z,68.50
2018-12-15T23:50:16.967Z,68.90
2018-12-15T23:52:43.226Z,68.70
2018-12-15T23:55:09.532Z,68.60
2018-12-15T23:57:35.849Z,68.30
